Clarksville, Illinois
Current Conditions -  °F | °C
As of 1:55 PM on Thursday 30 Oct 2014 (Local Time) from KPRG Reporting Station
Clear Clear  
Wind Chill: 54°   Ceiling: Unl
Heat Index: 54°   Visibility: 10mi
Dew Point: 35°   Wind: 5mph
Humidity: 49%   Direction: 210°SSW
Pressure: 30.09"   Gusts: NA
Location:  39.4361°N, 87.7043°W
Report Text: KPRG 301855Z AUTO 21004KT 10SM CLR 12/02 A3009 RMK AO2 T01210017
Loading
Personal Weather Stations






























Interactive Weather Map
Tropical Storm Tracking
New forecast layout! Learn more

10-Day Weather Forecast

Advertisements
Track Severe Weather on mobile